Etusivu
METAR-TAF:

METAR-TAF

Lentoasemat :

Abu Simbel, Egypti

Leveyspiiri: 22-22-33N, Pituuspiiri: 31-36-42E, korkeus merenpinnasta: 188 m

Tämänhetkinen sää

Tämä raportti tehtiin 2 tuntia ja 11 minuuttia sitten, kello 02.00 UTC
Tuuli 6 kn pohjoisen/luoteesta
Lämpötila 10°C
Kosteus 57%
Ilmanpaine 1020 hPa
Näkyvyys 10 km tai enemmän
ei pilviä alle 1500 m:ssä eikä cumulonimbus-pilviä

METAR: HEBL 250200Z 33006KT CAVOK 10/02 Q1020 NOSIG

Aika: 06:11 (04:11 UTC)

Sääennuste

Tämä raportti tehtiin 5 tuntia ja 11 minuuttia sitten, kello 23.00 UTC
Ennuste voimassa 25. päivästä klo 00 UTC - 26. päivään klo 06 UTC
Tuuli 12 kn luoteesta
Näkyvyys 10 km tai enemmän
ei pilviä alle 1500 m:ssä eikä cumulonimbus-pilviä

TAF: HEBL 242300Z 2500/2606 32012KT CAVOK

Säähavainnot ja -ennusteet yli 4000 lentoasemalta (METAR- ja TAF-raportit).

Käytössä olevat sääasemat on merkitty karttaan keltaisilla ja punaisilla pisteillä.

Aseta hiiri pisteen päälle nähdäksesi sääaseman nimen.

Klikkaa sitten nähdäksesi säähavainnot ja -ennusteet.

Kartan vaihtaminen: klikkaa mustalla rastilla varustettuja vihreitä pisteitä, niin voit zoomata sisään; viivalla varustettua vihreää pistettä, niin voit zoomata ulos tai vihreitä nuolia, niin pääset viereisille kartoille.


METAR-TAF: